Página principal
METAR-TAF:

METAR-TAF

Aeroportos :

Aeroporto Internacional da Praia

Praia, Cabo Verde

latitude: 14-55-27N, longitude: 23-29-38W, altura: 70 m

Observação actual do tempo

O boletim foi feito há 36 minutos, às 10:00 UTC
Vento 13 kt de norte
Temperatura 26°C
Humidade 61%
Pressão 1015 hPa
Visibilidade 10 km ou mais
Nuvens dispersasa uma altura de 1600 ft

METAR: GVNP 071000Z 35013KT 9999 SCT016 26/18 Q1015 NOSIG

Hora: 09:36 (10:36 UTC)

Previsão

O boletim foi feito há 5 horas e 36 minutos, às 05:00 UTC
Previsão válida de 07 às 06 UTC a 08 às 12 UTC
Vento 14 kt de norte
Visibilidade 10 km ou mais
Nuvens dispersasa uma altura de 1600 ft

TAF: GVNP 070500Z 0706/0812 01014KT 9999 SCT016

Observações e previsões do tempo de mais de 4000 aeroportos (mensagens METAR e TAF).

As estações disponíveis são os pontos amarelos e vermelhos sobre o mapa.

Mova o rato sobre o mapa para ver o nome da estação.

Depois clique no ponto para visualizar as observações e previsões meteorológicas.

Para alterar o mapa : clique nos botões verdes com uma cruz preta para aumentar o zoom; no botão verde com uma pitada de zoom; ou nas setas verdes para mapas adjacentes.


METAR-TAF: